sensor_id;sensor_type;location;lat;lon;timestamp;temperature;humidity
1504;DHT22;743;47.076;15.494;2023-02-01T00:02:15;3.80;1.00
1504;DHT22;743;47.076;15.494;2023-02-01T00:05:08;4.30;1.00
1504;DHT22;743;47.076;15.494;2023-02-01T00:07:36;3.80;1.00
1504;DHT22;743;47.076;15.494;2023-02-01T00:10:08;3.80;1.00
1504;DHT22;743;47.076;15.494;2023-02-01T00:12:37;3.70;1.00
1504;DHT22;743;47.076;15.494;2023-02-01T00:15:15;3.80;1.00
1504;DHT22;743;47.076;15.494;2023-02-01T00:17:43;3.80;1.00
1504;DHT22;743;47.076;15.494;2023-02-01T00:22:43;3.60;1.00
1504;DHT22;743;47.076;15.494;2023-02-01T00:25:14;3.70;1.00
1504;DHT22;743;47.076;15.494;2023-02-01T00:30:21;3.40;1.00
1504;DHT22;743;47.076;15.494;2023-02-01T00:32:49;4.00;1.00
1504;DHT22;743;47.076;15.494;2023-02-01T00:35:17;4.00;1.00
1504;DHT22;743;47.076;15.494;2023-02-01T00:37:46;3.80;1.00
1504;DHT22;743;47.076;15.494;2023-02-01T00:42:41;3.20;1.00
1504;DHT22;743;47.076;15.494;2023-02-01T00:45:10;3.30;1.00
1504;DHT22;743;47.076;15.494;2023-02-01T00:47:39;3.70;1.00
1504;DHT22;743;47.076;15.494;2023-02-01T00:50:08;3.60;1.00
1504;DHT22;743;47.076;15.494;2023-02-01T00:52:36;3.40;1.00
1504;DHT22;743;47.076;15.494;2023-02-01T00:55:05;3.80;1.00
1504;DHT22;743;47.076;15.494;2023-02-01T01:00:04;3.40;1.00
1504;DHT22;743;47.076;15.494;2023-02-01T01:05:06;3.50;1.00
1504;DHT22;743;47.076;15.494;2023-02-01T01:07:33;3.30;1.00
1504;DHT22;743;47.076;15.494;2023-02-01T01:12:29;3.70;1.00
1504;DHT22;743;47.076;15.494;2023-02-01T01:14:57;3.70;1.00
1504;DHT22;743;47.076;15.494;2023-02-01T01:17:26;3.70;1.00
1504;DHT22;743;47.076;15.494;2023-02-01T01:19:57;3.70;1.00
1504;DHT22;743;47.076;15.494;2023-02-01T01:22:38;3.90;1.00
1504;DHT22;743;47.076;15.494;2023-02-01T01:25:08;3.90;1.00
1504;DHT22;743;47.076;15.494;2023-02-01T01:30:05;4.00;1.00
1504;DHT22;743;47.076;15.494;2023-02-01T01:35:07;3.90;1.00
1504;DHT22;743;47.076;15.494;2023-02-01T01:37:38;3.80;1.00
1504;DHT22;743;47.076;15.494;2023-02-01T01:40:07;3.60;1.00
1504;DHT22;743;47.076;15.494;2023-02-01T01:42:36;3.50;1.00
1504;DHT22;743;47.076;15.494;2023-02-01T01:45:07;3.50;1.00
1504;DHT22;743;47.076;15.494;2023-02-01T01:47:35;3.50;1.00
1504;DHT22;743;47.076;15.494;2023-02-01T01:50:07;3.60;1.00
1504;DHT22;743;47.076;15.494;2023-02-01T01:52:41;4.00;1.00
1504;DHT22;743;47.076;15.494;2023-02-01T01:55:11;2.70;1.00
1504;DHT22;743;47.076;15.494;2023-02-01T01:57:41;3.20;1.00
1504;DHT22;743;47.076;15.494;2023-02-01T02:00:14;3.00;1.00
1504;DHT22;743;47.076;15.494;2023-02-01T02:02:48;3.30;1.00
1504;DHT22;743;47.076;15.494;2023-02-01T02:05:19;3.30;1.00
1504;DHT22;743;47.076;15.494;2023-02-01T02:07:58;3.20;1.00
1504;DHT22;743;47.076;15.494;2023-02-01T02:10:27;2.80;1.00
1504;DHT22;743;47.076;15.494;2023-02-01T02:13:09;3.10;1.00
1504;DHT22;743;47.076;15.494;2023-02-01T02:15:43;3.20;1.00
1504;DHT22;743;47.076;15.494;2023-02-01T02:18:18;3.60;1.00
1504;DHT22;743;47.076;15.494;2023-02-01T02:21:07;3.80;1.00
1504;DHT22;743;47.076;15.494;2023-02-01T02:32:54;3.20;1.00
1504;DHT22;743;47.076;15.494;2023-02-01T02:35:29;2.60;1.00
1504;DHT22;743;47.076;15.494;2023-02-01T02:38:01;2.60;1.00
1504;DHT22;743;47.076;15.494;2023-02-01T02:40:42;2.60;1.00
1504;DHT22;743;47.076;15.494;2023-02-01T02:43:18;2.80;1.00
1504;DHT22;743;47.076;15.494;2023-02-01T02:46:04;2.80;1.00
1504;DHT22;743;47.076;15.494;2023-02-01T02:48:54;2.80;1.00
1504;DHT22;743;47.076;15.494;2023-02-01T02:51:25;2.90;1.00
1504;DHT22;743;47.076;15.494;2023-02-01T02:54:13;3.10;1.00
1504;DHT22;743;47.076;15.494;2023-02-01T02:56:58;3.10;1.00
1504;DHT22;743;47.076;15.494;2023-02-01T02:59:43;3.10;1.00
1504;DHT22;743;47.076;15.494;2023-02-01T03:02:29;3.20;1.00
1504;DHT22;743;47.076;15.494;2023-02-01T03:05:14;3.20;1.00
1504;DHT22;743;47.076;15.494;2023-02-01T03:13:27;3.80;1.00
1504;DHT22;743;47.076;15.494;2023-02-01T03:15:56;3.50;1.00
1504;DHT22;743;47.076;15.494;2023-02-01T03:18:26;2.80;1.00
1504;DHT22;743;47.076;15.494;2023-02-01T03:20:55;2.90;1.00
1504;DHT22;743;47.076;15.494;2023-02-01T03:23:26;3.30;1.00
1504;DHT22;743;47.076;15.494;2023-02-01T03:26:00;3.40;1.00
1504;DHT22;743;47.076;15.494;2023-02-01T03:28:30;3.60;1.00
1504;DHT22;743;47.076;15.494;2023-02-01T03:31:00;3.60;1.00
1504;DHT22;743;47.076;15.494;2023-02-01T03:33:31;3.70;1.00
1504;DHT22;743;47.076;15.494;2023-02-01T03:36:02;3.70;1.00
1504;DHT22;743;47.076;15.494;2023-02-01T03:38:37;3.40;1.00
1504;DHT22;743;47.076;15.494;2023-02-01T03:41:08;3.50;1.00
1504;DHT22;743;47.076;15.494;2023-02-01T03:43:41;3.60;1.00
1504;DHT22;743;47.076;15.494;2023-02-01T03:46:11;3.80;1.00
1504;DHT22;743;47.076;15.494;2023-02-01T03:48:39;3.80;1.00
1504;DHT22;743;47.076;15.494;2023-02-01T03:51:08;3.80;1.00
1504;DHT22;743;47.076;15.494;2023-02-01T03:53:40;3.90;1.00
1504;DHT22;743;47.076;15.494;2023-02-01T03:56:12;3.80;1.00
1504;DHT22;743;47.076;15.494;2023-02-01T03:58:41;3.70;1.00
1504;DHT22;743;47.076;15.494;2023-02-01T04:01:23;3.70;1.00
1504;DHT22;743;47.076;15.494;2023-02-01T04:03:51;3.80;1.00
1504;DHT22;743;47.076;15.494;2023-02-01T04:06:23;3.80;1.00
1504;DHT22;743;47.076;15.494;2023-02-01T04:08:52;3.80;1.00
1504;DHT22;743;47.076;15.494;2023-02-01T04:11:24;3.60;1.00
1504;DHT22;743;47.076;15.494;2023-02-01T04:13:58;3.70;1.00
1504;DHT22;743;47.076;15.494;2023-02-01T04:16:30;3.70;1.00
1504;DHT22;743;47.076;15.494;2023-02-01T04:19:01;3.70;1.00
1504;DHT22;743;47.076;15.494;2023-02-01T04:21:28;3.50;1.00
1504;DHT22;743;47.076;15.494;2023-02-01T04:23:56;3.60;1.00
1504;DHT22;743;47.076;15.494;2023-02-01T04:26:25;3.60;1.00
1504;DHT22;743;47.076;15.494;2023-02-01T04:28:52;3.60;1.00
1504;DHT22;743;47.076;15.494;2023-02-01T04:31:24;3.60;1.00
1504;DHT22;743;47.076;15.494;2023-02-01T04:33:53;3.60;1.00
1504;DHT22;743;47.076;15.494;2023-02-01T04:36:24;3.10;1.00
1504;DHT22;743;47.076;15.494;2023-02-01T04:38:52;3.30;1.00
1504;DHT22;743;47.076;15.494;2023-02-01T04:41:19;3.30;1.00
1504;DHT22;743;47.076;15.494;2023-02-01T04:43:49;3.20;1.00
1504;DHT22;743;47.076;15.494;2023-02-01T04:46:17;3.30;1.00
1504;DHT22;743;47.076;15.494;2023-02-01T04:48:49;3.30;1.00
1504;DHT22;743;47.076;15.494;2023-02-01T04:51:17;3.30;1.00
1504;DHT22;743;47.076;15.494;2023-02-01T04:53:45;3.40;1.00
1504;DHT22;743;47.076;15.494;2023-02-01T04:56:31;3.40;1.00
1504;DHT22;743;47.076;15.494;2023-02-01T04:59:00;3.40;1.00
1504;DHT22;743;47.076;15.494;2023-02-01T05:01:29;3.30;1.00
1504;DHT22;743;47.076;15.494;2023-02-01T05:04:09;3.40;1.00
1504;DHT22;743;47.076;15.494;2023-02-01T05:06:38;3.40;1.00
1504;DHT22;743;47.076;15.494;2023-02-01T05:09:06;3.40;1.00
1504;DHT22;743;47.076;15.494;2023-02-01T05:11:35;3.40;1.00
1504;DHT22;743;47.076;15.494;2023-02-01T05:14:20;3.40;1.00
1504;DHT22;743;47.076;15.494;2023-02-01T05:16:47;3.50;1.00
1504;DHT22;743;47.076;15.494;2023-02-01T05:19:24;3.20;1.00
1504;DHT22;743;47.076;15.494;2023-02-01T05:21:56;3.10;1.00
1504;DHT22;743;47.076;15.494;2023-02-01T05:24:25;3.30;1.00
1504;DHT22;743;47.076;15.494;2023-02-01T05:26:52;3.30;1.00
1504;DHT22;743;47.076;15.494;2023-02-01T05:29:20;3.10;1.00
1504;DHT22;743;47.076;15.494;2023-02-01T05:31:48;3.10;1.00
1504;DHT22;743;47.076;15.494;2023-02-01T05:34:17;3.10;1.00
1504;DHT22;743;47.076;15.494;2023-02-01T05:36:46;3.10;1.00
1504;DHT22;743;47.076;15.494;2023-02-01T05:39:13;6.50;1.00
1504;DHT22;743;47.076;15.494;2023-02-01T05:41:40;7.70;1.00
1504;DHT22;743;47.076;15.494;2023-02-01T05:44:12;9.00;1.00
1504;DHT22;743;47.076;15.494;2023-02-01T05:46:40;8.40;1.00
1504;DHT22;743;47.076;15.494;2023-02-01T05:49:09;7.60;1.00
1504;DHT22;743;47.076;15.494;2023-02-01T05:51:41;5.90;1.00
1504;DHT22;743;47.076;15.494;2023-02-01T05:54:08;5.50;1.00
1504;DHT22;743;47.076;15.494;2023-02-01T05:56:37;5.20;1.00
1504;DHT22;743;47.076;15.494;2023-02-01T05:59:06;4.00;1.00
1504;DHT22;743;47.076;15.494;2023-02-01T06:01:33;3.80;1.00
1504;DHT22;743;47.076;15.494;2023-02-01T06:04:01;3.60;1.00
1504;DHT22;743;47.076;15.494;2023-02-01T06:06:28;3.40;1.00
1504;DHT22;743;47.076;15.494;2023-02-01T06:09:01;3.70;1.00
1504;DHT22;743;47.076;15.494;2023-02-01T06:11:33;3.70;1.00
1504;DHT22;743;47.076;15.494;2023-02-01T06:14:00;3.60;1.00
1504;DHT22;743;47.076;15.494;2023-02-01T06:16:28;3.60;1.00
1504;DHT22;743;47.076;15.494;2023-02-01T06:18:57;3.60;1.00
1504;DHT22;743;47.076;15.494;2023-02-01T06:21:26;3.40;1.00
1504;DHT22;743;47.076;15.494;2023-02-01T06:23:56;3.40;1.00
1504;DHT22;743;47.076;15.494;2023-02-01T06:26:28;3.30;1.00
1504;DHT22;743;47.076;15.494;2023-02-01T06:28:55;3.20;1.00
1504;DHT22;743;47.076;15.494;2023-02-01T06:31:27;3.40;1.00
1504;DHT22;743;47.076;15.494;2023-02-01T06:33:59;3.50;1.00
1504;DHT22;743;47.076;15.494;2023-02-01T06:36:30;3.20;1.00
1504;DHT22;743;47.076;15.494;2023-02-01T06:38:58;3.30;1.00
1504;DHT22;743;47.076;15.494;2023-02-01T06:41:28;3.10;1.00
1504;DHT22;743;47.076;15.494;2023-02-01T06:48:55;3.60;1.00
1504;DHT22;743;47.076;15.494;2023-02-01T06:51:29;3.70;1.00
1504;DHT22;743;47.076;15.494;2023-02-01T06:54:05;3.30;1.00
1504;DHT22;743;47.076;15.494;2023-02-01T06:56:36;3.70;1.00
1504;DHT22;743;47.076;15.494;2023-02-01T06:59:04;3.60;1.00
1504;DHT22;743;47.076;15.494;2023-02-01T07:01:33;3.70;1.00
1504;DHT22;743;47.076;15.494;2023-02-01T07:04:01;3.50;1.00
1504;DHT22;743;47.076;15.494;2023-02-01T07:06:29;3.40;1.00
1504;DHT22;743;47.076;15.494;2023-02-01T07:08:57;2.90;1.00
1504;DHT22;743;47.076;15.494;2023-02-01T07:11:26;4.00;1.00
1504;DHT22;743;47.076;15.494;2023-02-01T07:13:58;3.60;1.00
1504;DHT22;743;47.076;15.494;2023-02-01T07:16:26;3.70;1.00
1504;DHT22;743;47.076;15.494;2023-02-01T07:18:54;3.70;1.00
1504;DHT22;743;47.076;15.494;2023-02-01T07:26:45;4.10;1.00
1504;DHT22;743;47.076;15.494;2023-02-01T07:29:15;4.10;1.00
1504;DHT22;743;47.076;15.494;2023-02-01T07:31:42;4.20;1.00
1504;DHT22;743;47.076;15.494;2023-02-01T07:34:09;4.20;1.00
1504;DHT22;743;47.076;15.494;2023-02-01T07:36:37;4.30;1.00
1504;DHT22;743;47.076;15.494;2023-02-01T07:39:04;4.50;1.00
1504;DHT22;743;47.076;15.494;2023-02-01T07:41:31;4.50;1.00
1504;DHT22;743;47.076;15.494;2023-02-01T07:43:59;4.60;1.00
1504;DHT22;743;47.076;15.494;2023-02-01T07:46:28;7.00;80.00
1504;DHT22;743;47.076;15.494;2023-02-01T07:48:55;8.70;1.00
1504;DHT22;743;47.076;15.494;2023-02-01T07:51:27;8.50;1.00
1504;DHT22;743;47.076;15.494;2023-02-01T07:53:54;8.00;1.00
1504;DHT22;743;47.076;15.494;2023-02-01T07:56:22;7.50;1.00
1504;DHT22;743;47.076;15.494;2023-02-01T07:58:51;7.10;1.00
1504;DHT22;743;47.076;15.494;2023-02-01T08:01:18;6.00;1.00
1504;DHT22;743;47.076;15.494;2023-02-01T08:03:46;6.10;1.00
1504;DHT22;743;47.076;15.494;2023-02-01T08:06:16;6.10;1.00
1504;DHT22;743;47.076;15.494;2023-02-01T08:08:44;6.20;1.00
1504;DHT22;743;47.076;15.494;2023-02-01T08:11:12;6.30;1.00
1504;DHT22;743;47.076;15.494;2023-02-01T08:13:41;6.50;1.00
1504;DHT22;743;47.076;15.494;2023-02-01T08:16:09;6.60;1.00
1504;DHT22;743;47.076;15.494;2023-02-01T08:18:39;6.70;1.00
1504;DHT22;743;47.076;15.494;2023-02-01T08:21:09;6.70;1.00
1504;DHT22;743;47.076;15.494;2023-02-01T08:23:37;6.60;1.00
1504;DHT22;743;47.076;15.494;2023-02-01T08:26:07;6.70;1.00
1504;DHT22;743;47.076;15.494;2023-02-01T08:28:35;6.60;1.00
1504;DHT22;743;47.076;15.494;2023-02-01T08:31:06;6.50;1.00
1504;DHT22;743;47.076;15.494;2023-02-01T08:33:34;6.30;1.00
1504;DHT22;743;47.076;15.494;2023-02-01T08:36:02;6.30;1.00
1504;DHT22;743;47.076;15.494;2023-02-01T08:38:32;6.20;1.00
1504;DHT22;743;47.076;15.494;2023-02-01T08:41:03;6.10;1.00
1504;DHT22;743;47.076;15.494;2023-02-01T08:43:31;6.40;1.00
1504;DHT22;743;47.076;15.494;2023-02-01T08:46:01;6.40;1.00
1504;DHT22;743;47.076;15.494;2023-02-01T08:48:31;6.40;1.00
1504;DHT22;743;47.076;15.494;2023-02-01T08:51:00;6.60;1.00
1504;DHT22;743;47.076;15.494;2023-02-01T08:53:35;6.70;1.00
1504;DHT22;743;47.076;15.494;2023-02-01T08:56:04;6.70;1.00
1504;DHT22;743;47.076;15.494;2023-02-01T08:58:34;6.60;1.00
1504;DHT22;743;47.076;15.494;2023-02-01T09:01:03;6.70;1.00
1504;DHT22;743;47.076;15.494;2023-02-01T09:03:31;6.70;1.00
1504;DHT22;743;47.076;15.494;2023-02-01T09:06:01;6.80;1.00
1504;DHT22;743;47.076;15.494;2023-02-01T09:08:30;6.80;1.00
1504;DHT22;743;47.076;15.494;2023-02-01T09:11:03;7.20;1.00
1504;DHT22;743;47.076;15.494;2023-02-01T09:13:34;7.30;1.00
1504;DHT22;743;47.076;15.494;2023-02-01T09:16:04;7.50;1.00
1504;DHT22;743;47.076;15.494;2023-02-01T09:18:33;7.50;1.00
1504;DHT22;743;47.076;15.494;2023-02-01T09:21:11;7.50;1.00
1504;DHT22;743;47.076;15.494;2023-02-01T09:23:40;7.60;1.00
1504;DHT22;743;47.076;15.494;2023-02-01T09:26:15;7.70;1.00
1504;DHT22;743;47.076;15.494;2023-02-01T09:28:42;7.50;1.00
1504;DHT22;743;47.076;15.494;2023-02-01T09:31:10;7.70;1.00
1504;DHT22;743;47.076;15.494;2023-02-01T09:33:40;8.00;1.00
1504;DHT22;743;47.076;15.494;2023-02-01T09:36:32;8.20;1.00
1504;DHT22;743;47.076;15.494;2023-02-01T09:39:02;8.20;1.00
1504;DHT22;743;47.076;15.494;2023-02-01T09:41:37;8.10;1.00
1504;DHT22;743;47.076;15.494;2023-02-01T09:44:14;8.10;1.00
1504;DHT22;743;47.076;15.494;2023-02-01T09:46:43;8.30;1.00
1504;DHT22;743;47.076;15.494;2023-02-01T09:49:15;8.40;1.00
1504;DHT22;743;47.076;15.494;2023-02-01T09:51:46;8.30;1.00
1504;DHT22;743;47.076;15.494;2023-02-01T09:54:15;8.40;1.00
1504;DHT22;743;47.076;15.494;2023-02-01T09:56:46;8.50;1.00
1504;DHT22;743;47.076;15.494;2023-02-01T09:59:20;8.50;1.00
1504;DHT22;743;47.076;15.494;2023-02-01T10:01:51;8.70;1.00
1504;DHT22;743;47.076;15.494;2023-02-01T10:04:21;8.90;1.00
1504;DHT22;743;47.076;15.494;2023-02-01T10:06:57;9.10;1.00
1504;DHT22;743;47.076;15.494;2023-02-01T10:09:55;9.20;1.00
1504;DHT22;743;47.076;15.494;2023-02-01T10:18:00;9.70;1.00
1504;DHT22;743;47.076;15.494;2023-02-01T10:20:35;9.80;1.00
1504;DHT22;743;47.076;15.494;2023-02-01T10:23:11;10.00;1.00
1504;DHT22;743;47.076;15.494;2023-02-01T10:25:48;10.10;1.00
1504;DHT22;743;47.076;15.494;2023-02-01T10:28:19;10.10;1.00
1504;DHT22;743;47.076;15.494;2023-02-01T10:30:48;10.30;1.00
1504;DHT22;743;47.076;15.494;2023-02-01T10:33:23;10.40;1.00
1504;DHT22;743;47.076;15.494;2023-02-01T10:35:53;10.50;1.00
1504;DHT22;743;47.076;15.494;2023-02-01T10:38:23;10.50;1.00
1504;DHT22;743;47.076;15.494;2023-02-01T10:44:27;10.90;1.00
1504;DHT22;743;47.076;15.494;2023-02-01T10:47:25;12.90;1.00
1504;DHT22;743;47.076;15.494;2023-02-01T10:49:57;14.40;1.00
1504;DHT22;743;47.076;15.494;2023-02-01T10:52:30;14.40;1.00
1504;DHT22;743;47.076;15.494;2023-02-01T10:57:53;15.70;1.00
1504;DHT22;743;47.076;15.494;2023-02-01T11:00:22;16.30;1.00
1504;DHT22;743;47.076;15.494;2023-02-01T11:02:52;16.80;1.00
1504;DHT22;743;47.076;15.494;2023-02-01T11:05:21;17.00;1.00
1504;DHT22;743;47.076;15.494;2023-02-01T11:07:49;16.80;1.00
1504;DHT22;743;47.076;15.494;2023-02-01T11:13:04;17.30;1.00
1504;DHT22;743;47.076;15.494;2023-02-01T11:15:32;17.60;1.00
1504;DHT22;743;47.076;15.494;2023-02-01T11:18:12;17.60;1.00
1504;DHT22;743;47.076;15.494;2023-02-01T11:20:42;16.90;1.00
1504;DHT22;743;47.076;15.494;2023-02-01T11:23:13;15.40;1.00
1504;DHT22;743;47.076;15.494;2023-02-01T11:25:47;15.20;1.00
1504;DHT22;743;47.076;15.494;2023-02-01T11:28:15;14.40;1.00
1504;DHT22;743;47.076;15.494;2023-02-01T11:30:43;14.20;1.00
1504;DHT22;743;47.076;15.494;2023-02-01T11:33:14;13.80;1.00
1504;DHT22;743;47.076;15.494;2023-02-01T11:35:44;13.60;1.00
1504;DHT22;743;47.076;15.494;2023-02-01T11:38:13;13.50;1.00
1504;DHT22;743;47.076;15.494;2023-02-01T11:40:44;13.40;1.00
1504;DHT22;743;47.076;15.494;2023-02-01T11:43:14;13.40;1.00
1504;DHT22;743;47.076;15.494;2023-02-01T11:45:43;14.10;1.00
1504;DHT22;743;47.076;15.494;2023-02-01T11:48:19;15.50;1.00
1504;DHT22;743;47.076;15.494;2023-02-01T11:50:50;14.90;1.00
1504;DHT22;743;47.076;15.494;2023-02-01T11:53:25;14.80;1.00
1504;DHT22;743;47.076;15.494;2023-02-01T11:56:00;14.40;1.00
1504;DHT22;743;47.076;15.494;2023-02-01T11:58:43;14.00;1.00
1504;DHT22;743;47.076;15.494;2023-02-01T12:07:01;13.80;1.00
1504;DHT22;743;47.076;15.494;2023-02-01T12:09:39;13.80;1.00
1504;DHT22;743;47.076;15.494;2023-02-01T12:12:14;13.70;1.00
1504;DHT22;743;47.076;15.494;2023-02-01T12:14:50;13.20;1.00
1504;DHT22;743;47.076;15.494;2023-02-01T12:20:07;14.30;1.00
1504;DHT22;743;47.076;15.494;2023-02-01T12:22:45;14.30;1.00
1504;DHT22;743;47.076;15.494;2023-02-01T12:25:29;13.30;1.00
1504;DHT22;743;47.076;15.494;2023-02-01T12:28:42;12.80;1.00
1504;DHT22;743;47.076;15.494;2023-02-01T12:31:34;12.50;1.00
1504;DHT22;743;47.076;15.494;2023-02-01T12:34:34;12.60;1.00
1504;DHT22;743;47.076;15.494;2023-02-01T12:37:19;12.90;1.00
1504;DHT22;743;47.076;15.494;2023-02-01T12:40:02;13.00;1.00
1504;DHT22;743;47.076;15.494;2023-02-01T12:42:39;13.30;1.00
1504;DHT22;743;47.076;15.494;2023-02-01T12:45:12;13.40;1.00
1504;DHT22;743;47.076;15.494;2023-02-01T12:47:46;13.20;1.00
1504;DHT22;743;47.076;15.494;2023-02-01T12:50:20;12.70;1.00
1504;DHT22;743;47.076;15.494;2023-02-01T12:52:52;13.00;1.00
1504;DHT22;743;47.076;15.494;2023-02-01T12:55:27;13.00;1.00
1504;DHT22;743;47.076;15.494;2023-02-01T12:58:03;12.70;1.00
1504;DHT22;743;47.076;15.494;2023-02-01T13:00:41;12.80;1.00
1504;DHT22;743;47.076;15.494;2023-02-01T13:03:31;12.70;1.00
1504;DHT22;743;47.076;15.494;2023-02-01T13:06:08;13.00;1.00
1504;DHT22;743;47.076;15.494;2023-02-01T13:08:43;12.90;1.00
1504;DHT22;743;47.076;15.494;2023-02-01T13:11:18;12.80;1.00
1504;DHT22;743;47.076;15.494;2023-02-01T13:14:02;12.90;1.00
1504;DHT22;743;47.076;15.494;2023-02-01T13:16:34;12.90;1.00
1504;DHT22;743;47.076;15.494;2023-02-01T13:19:09;12.80;1.00
1504;DHT22;743;47.076;15.494;2023-02-01T13:21:43;12.80;1.00
1504;DHT22;743;47.076;15.494;2023-02-01T13:24:31;13.40;1.00
1504;DHT22;743;47.076;15.494;2023-02-01T13:27:03;12.60;1.00
1504;DHT22;743;47.076;15.494;2023-02-01T13:29:33;12.40;1.00
1504;DHT22;743;47.076;15.494;2023-02-01T13:32:33;12.50;1.00
1504;DHT22;743;47.076;15.494;2023-02-01T13:35:35;12.60;1.00
1504;DHT22;743;47.076;15.494;2023-02-01T13:38:30;12.90;1.00
1504;DHT22;743;47.076;15.494;2023-02-01T13:41:15;12.60;1.00
1504;DHT22;743;47.076;15.494;2023-02-01T13:43:59;13.30;1.00
1504;DHT22;743;47.076;15.494;2023-02-01T13:46:29;12.80;1.00
1504;DHT22;743;47.076;15.494;2023-02-01T13:49:00;12.60;1.00
1504;DHT22;743;47.076;15.494;2023-02-01T13:51:36;12.90;1.00
1504;DHT22;743;47.076;15.494;2023-02-01T13:54:29;12.80;1.00
1504;DHT22;743;47.076;15.494;2023-02-01T13:57:44;13.30;1.00
1504;DHT22;743;47.076;15.494;2023-02-01T14:00:38;12.10;1.00
1504;DHT22;743;47.076;15.494;2023-02-01T14:03:12;11.90;1.00
1504;DHT22;743;47.076;15.494;2023-02-01T14:06:17;12.10;1.00
1504;DHT22;743;47.076;15.494;2023-02-01T14:11:40;11.80;1.00
1504;DHT22;743;47.076;15.494;2023-02-01T14:20:42;12.00;1.00
1504;DHT22;743;47.076;15.494;2023-02-01T14:23:30;12.40;1.00
1504;DHT22;743;47.076;15.494;2023-02-01T14:26:21;12.00;1.00
1504;DHT22;743;47.076;15.494;2023-02-01T14:28:58;12.00;1.00
1504;DHT22;743;47.076;15.494;2023-02-01T14:31:44;11.60;1.00
1504;DHT22;743;47.076;15.494;2023-02-01T14:34:31;11.80;1.00
1504;DHT22;743;47.076;15.494;2023-02-01T14:37:10;11.90;1.00
1504;DHT22;743;47.076;15.494;2023-02-01T14:39:54;11.30;1.00
1504;DHT22;743;47.076;15.494;2023-02-01T14:42:27;11.00;1.00
1504;DHT22;743;47.076;15.494;2023-02-01T14:51:24;10.80;1.00
1504;DHT22;743;47.076;15.494;2023-02-01T14:54:11;10.50;1.00
1504;DHT22;743;47.076;15.494;2023-02-01T14:56:47;10.30;1.00
1504;DHT22;743;47.076;15.494;2023-02-01T14:59:24;10.20;1.00
1504;DHT22;743;47.076;15.494;2023-02-01T15:02:18;9.90;1.00
1504;DHT22;743;47.076;15.494;2023-02-01T15:04:56;10.40;1.00
1504;DHT22;743;47.076;15.494;2023-02-01T15:07:30;9.90;1.00
1504;DHT22;743;47.076;15.494;2023-02-01T15:10:12;10.30;1.00
1504;DHT22;743;47.076;15.494;2023-02-01T15:15:15;10.00;1.00
1504;DHT22;743;47.076;15.494;2023-02-01T15:17:56;10.10;1.00
1504;DHT22;743;47.076;15.494;2023-02-01T15:20:25;9.80;1.00
1504;DHT22;743;47.076;15.494;2023-02-01T15:22:59;9.80;1.00
1504;DHT22;743;47.076;15.494;2023-02-01T15:25:31;9.70;1.00
1504;DHT22;743;47.076;15.494;2023-02-01T15:28:01;9.80;1.00
1504;DHT22;743;47.076;15.494;2023-02-01T15:30:30;9.90;1.00
1504;DHT22;743;47.076;15.494;2023-02-01T15:33:07;9.80;1.00
1504;DHT22;743;47.076;15.494;2023-02-01T15:35:38;9.80;1.00
1504;DHT22;743;47.076;15.494;2023-02-01T15:40:57;9.80;1.00
1504;DHT22;743;47.076;15.494;2023-02-01T15:46:02;9.70;1.00
1504;DHT22;743;47.076;15.494;2023-02-01T15:48:36;9.60;1.00
1504;DHT22;743;47.076;15.494;2023-02-01T15:51:15;9.60;1.00
1504;DHT22;743;47.076;15.494;2023-02-01T15:53:47;10.30;1.00
1504;DHT22;743;47.076;15.494;2023-02-01T15:56:26;9.80;1.00
1504;DHT22;743;47.076;15.494;2023-02-01T15:58:57;9.80;1.00
1504;DHT22;743;47.076;15.494;2023-02-01T16:01:29;9.70;1.00
1504;DHT22;743;47.076;15.494;2023-02-01T16:04:13;9.70;1.00
1504;DHT22;743;47.076;15.494;2023-02-01T16:06:48;9.60;1.00
1504;DHT22;743;47.076;15.494;2023-02-01T16:09:18;9.40;1.00
1504;DHT22;743;47.076;15.494;2023-02-01T16:11:54;9.50;1.00
1504;DHT22;743;47.076;15.494;2023-02-01T16:14:30;9.60;1.00
1504;DHT22;743;47.076;15.494;2023-02-01T16:16:59;10.00;1.00
1504;DHT22;743;47.076;15.494;2023-02-01T16:19:29;9.80;1.00
1504;DHT22;743;47.076;15.494;2023-02-01T16:24:38;8.50;1.00
1504;DHT22;743;47.076;15.494;2023-02-01T16:27:11;9.60;1.00
1504;DHT22;743;47.076;15.494;2023-02-01T16:32:10;10.00;1.00
1504;DHT22;743;47.076;15.494;2023-02-01T16:34:47;9.70;1.00
1504;DHT22;743;47.076;15.494;2023-02-01T16:37:22;9.60;1.00
1504;DHT22;743;47.076;15.494;2023-02-01T16:39:51;9.40;1.00
1504;DHT22;743;47.076;15.494;2023-02-01T16:42:22;9.20;1.00
1504;DHT22;743;47.076;15.494;2023-02-01T16:44:50;9.40;1.00
1504;DHT22;743;47.076;15.494;2023-02-01T16:47:21;9.40;1.00
1504;DHT22;743;47.076;15.494;2023-02-01T16:49:53;9.40;1.00
1504;DHT22;743;47.076;15.494;2023-02-01T16:52:23;9.60;1.00
1504;DHT22;743;47.076;15.494;2023-02-01T16:54:53;8.90;1.00
1504;DHT22;743;47.076;15.494;2023-02-01T16:57:25;9.20;1.00
1504;DHT22;743;47.076;15.494;2023-02-01T17:00:03;9.10;1.00
1504;DHT22;743;47.076;15.494;2023-02-01T17:02:32;8.70;1.00
1504;DHT22;743;47.076;15.494;2023-02-01T17:05:00;9.10;1.00
1504;DHT22;743;47.076;15.494;2023-02-01T17:07:28;9.10;1.00
1504;DHT22;743;47.076;15.494;2023-02-01T17:09:57;9.10;1.00
1504;DHT22;743;47.076;15.494;2023-02-01T17:12:29;9.10;1.00
1504;DHT22;743;47.076;15.494;2023-02-01T17:15:01;9.10;1.00
1504;DHT22;743;47.076;15.494;2023-02-01T17:17:33;9.00;1.00
1504;DHT22;743;47.076;15.494;2023-02-01T17:20:05;9.20;1.00
1504;DHT22;743;47.076;15.494;2023-02-01T17:22:39;9.10;1.00
1504;DHT22;743;47.076;15.494;2023-02-01T17:25:14;9.20;1.00
1504;DHT22;743;47.076;15.494;2023-02-01T17:27:46;9.00;1.00
1504;DHT22;743;47.076;15.494;2023-02-01T17:30:15;9.00;1.00
1504;DHT22;743;47.076;15.494;2023-02-01T17:32:48;9.00;1.00
1504;DHT22;743;47.076;15.494;2023-02-01T17:35:22;9.00;1.00
1504;DHT22;743;47.076;15.494;2023-02-01T17:37:51;9.10;1.00
1504;DHT22;743;47.076;15.494;2023-02-01T17:40:19;8.70;1.00
1504;DHT22;743;47.076;15.494;2023-02-01T17:42:51;8.80;1.00
1504;DHT22;743;47.076;15.494;2023-02-01T17:45:41;8.90;1.00
1504;DHT22;743;47.076;15.494;2023-02-01T17:48:15;8.90;1.00
1504;DHT22;743;47.076;15.494;2023-02-01T17:50:47;8.00;1.00
1504;DHT22;743;47.076;15.494;2023-02-01T17:53:19;9.10;1.00
1504;DHT22;743;47.076;15.494;2023-02-01T17:59:02;8.70;1.00
1504;DHT22;743;47.076;15.494;2023-02-01T18:06:50;8.60;1.00
1504;DHT22;743;47.076;15.494;2023-02-01T18:09:26;8.70;1.00
1504;DHT22;743;47.076;15.494;2023-02-01T18:11:58;8.80;1.00
1504;DHT22;743;47.076;15.494;2023-02-01T18:14:33;8.60;1.00
1504;DHT22;743;47.076;15.494;2023-02-01T18:17:04;9.00;1.00
1504;DHT22;743;47.076;15.494;2023-02-01T18:19:38;8.90;1.00
1504;DHT22;743;47.076;15.494;2023-02-01T18:24:54;8.40;1.00
1504;DHT22;743;47.076;15.494;2023-02-01T18:30:00;8.40;1.00
1504;DHT22;743;47.076;15.494;2023-02-01T18:32:32;8.60;1.00
1504;DHT22;743;47.076;15.494;2023-02-01T18:37:32;8.60;1.00
1504;DHT22;743;47.076;15.494;2023-02-01T18:40:06;8.40;1.00
1504;DHT22;743;47.076;15.494;2023-02-01T18:42:43;8.40;1.00
1504;DHT22;743;47.076;15.494;2023-02-01T18:45:37;8.40;1.00
1504;DHT22;743;47.076;15.494;2023-02-01T18:50:52;8.40;1.00
1504;DHT22;743;47.076;15.494;2023-02-01T18:53:24;7.60;1.00
1504;DHT22;743;47.076;15.494;2023-02-01T18:55:57;8.30;1.00
1504;DHT22;743;47.076;15.494;2023-02-01T18:58:28;8.40;1.00
1504;DHT22;743;47.076;15.494;2023-02-01T19:01:20;8.10;1.00
1504;DHT22;743;47.076;15.494;2023-02-01T19:03:56;7.80;1.00
1504;DHT22;743;47.076;15.494;2023-02-01T19:06:25;8.60;1.00